Time;durP1;ratioP1;P1;durP2;ratioP2;P2;SDS_P1;SDS_P2;PMS_P1;PMS_P2;Temp;Humidity;BMP_temperature;BMP_pressure;BME280_temperature;BME280_humidity;BME280_pressure;Samples;Min_cycle;Max_cycle;Signal;HPM_P1;HPM_P2
2022/03/18 00:02:23;;;;;;;;;;;;;;;8.78;100.00;101062.03;5094895;27;19912;-58
2022/03/18 00:04:48;;;;;;;;;;;;;;;8.59;100.00;101070.41;5116222;27;19918;-61
2022/03/18 00:07:14;;;;;;;;;;;;;;;8.11;100.00;101066.47;5123726;27;19912;-61
2022/03/18 00:09:41;;;;;;;;;;;;;;;8.49;100.00;101066.03;5094955;28;19938;-61
2022/03/18 00:12:10;;;;;;;;;;;;;;;8.26;100.00;101066.63;5124693;22;19927;-60
2022/03/18 00:14:35;;;;;;;;;;;;;;;8.15;100.00;101068.22;5114331;27;19973;-58
2022/03/18 00:17:00;;;;;;;;;;;;;;;8.48;100.00;101069.44;5113774;27;19969;-60
2022/03/18 00:19:27;;;;;;;;;;;;;;;8.46;100.00;101072.00;5113414;27;19922;-60
2022/03/18 00:22:00;;;;;;;;;;;;;;;7.88;100.00;101068.75;5114697;27;19912;-60
2022/03/18 00:24:25;;;;;;;;;;;;;;;8.35;100.00;101066.72;5094461;27;20292;-60
2022/03/18 00:26:50;;;;;;;;;;;;;;;8.52;100.00;101071.19;5114454;27;19912;-59
2022/03/18 00:29:15;;;;;;;;;;;;;;;8.28;100.00;101075.22;5113669;27;19916;-59
2022/03/18 00:31:41;;;;;;;;;;;;;;;8.54;100.00;101077.22;5113302;27;19911;-59
2022/03/18 00:34:06;;;;;;;;;;;;;;;8.53;100.00;101075.47;5113913;27;19918;-59
2022/03/18 00:36:31;;;;;;;;;;;;;;;8.75;100.00;101067.13;5113708;27;19938;-58
2022/03/18 00:38:56;;;;;;;;;;;;;;;8.78;100.00;101072.31;5112810;27;20057;-60
2022/03/18 00:41:22;;;;;;;;;;;;;;;8.77;100.00;101070.56;5112891;27;20365;-59
2022/03/18 00:43:49;;;;;;;;;;;;;;;8.64;100.00;101067.88;5113572;27;20352;-60
2022/03/18 00:46:15;;;;;;;;;;;;;;;8.14;100.00;101076.75;5109286;27;20094;-59
2022/03/18 00:54:08;;;;;;;;;;;;;;;7.17;100.00;101082.31;5110770;27;19923;-60
2022/03/18 00:56:33;;;;;;;;;;;;;;;7.01;100.00;101087.19;5111225;27;19919;-59
2022/03/18 00:58:58;;;;;;;;;;;;;;;7.20;100.00;101087.47;5110274;27;20425;-59
2022/03/18 01:01:26;;;;;;;;;;;;;;;7.21;100.00;101099.47;5111432;27;19939;-60
2022/03/18 01:03:52;;;;;;;;;;;;;;;7.13;100.00;101092.50;5097368;27;19926;-60
2022/03/18 01:06:17;;;;;;;;;;;;;;;7.11;100.00;101099.28;5110586;27;20289;-60
2022/03/18 01:08:42;;;;;;;;;;;;;;;7.12;100.00;101090.78;5113101;27;19930;-59
2022/03/18 01:11:08;;;;;;;;;;;;;;;7.03;100.00;101098.31;5110847;27;19951;-60
2022/03/18 01:13:34;;;;;;;;;;;;;;;7.15;100.00;101094.25;5111303;27;19972;-60
2022/03/18 01:15:59;;;;;;;;;;;;;;;7.25;100.00;101096.09;5109227;27;19934;-59
2022/03/18 01:18:24;;;;;;;;;;;;;;;6.74;100.00;101099.53;5110943;27;19931;-61
2022/03/18 01:20:49;;;;;;;;;;;;;;;6.68;100.00;101103.72;5111527;27;20368;-59
2022/03/18 01:23:15;;;;;;;;;;;;;;;6.57;100.00;101095.00;5110573;27;19923;-60
2022/03/18 01:25:40;;;;;;;;;;;;;;;6.39;100.00;101104.88;5108712;27;19916;-60
2022/03/18 01:28:06;;;;;;;;;;;;;;;6.25;100.00;101107.19;5108864;27;19915;-58
2022/03/18 01:30:32;;;;;;;;;;;;;;;6.47;100.00;101105.88;5088768;27;20008;-59
2022/03/18 01:32:59;;;;;;;;;;;;;;;6.68;100.00;101101.16;5090654;27;19926;-59
2022/03/18 01:35:25;;;;;;;;;;;;;;;6.40;100.00;101104.03;5109150;27;19965;-60
2022/03/18 01:37:50;;;;;;;;;;;;;;;6.59;100.00;101107.78;5111850;27;20400;-60
2022/03/18 01:40:15;;;;;;;;;;;;;;;6.19;100.00;101107.91;5109178;27;19919;-60
2022/03/18 01:42:40;;;;;;;;;;;;;;;6.24;100.00;101101.19;5110335;27;19927;-60
2022/03/18 01:45:06;;;;;;;;;;;;;;;6.32;100.00;101103.91;5089924;27;19964;-60
2022/03/18 01:47:31;;;;;;;;;;;;;;;6.34;100.00;101106.47;5114213;27;19919;-60
2022/03/18 01:49:58;;;;;;;;;;;;;;;6.49;100.00;101107.63;5092084;28;19919;-60
2022/03/18 01:52:24;;;;;;;;;;;;;;;6.64;100.00;101109.63;5108319;27;19916;-60
2022/03/18 01:54:49;;;;;;;;;;;;;;;6.19;100.00;101113.03;5107953;27;19916;-59
2022/03/18 01:57:16;;;;;;;;;;;;;;;6.22;100.00;101118.19;5108048;27;20482;-59
2022/03/18 01:59:41;;;;;;;;;;;;;;;6.40;100.00;101121.97;5109778;27;20081;-60
2022/03/18 02:02:08;;;;;;;;;;;;;;;6.52;100.00;101129.84;5091664;27;20014;-58
2022/03/18 02:04:34;;;;;;;;;;;;;;;6.55;100.00;101131.63;5106174;27;19938;-59
2022/03/18 02:06:59;;;;;;;;;;;;;;;6.17;100.00;101124.91;5110663;27;19915;-59
2022/03/18 02:09:25;;;;;;;;;;;;;;;6.24;100.00;101131.03;5109192;27;19919;-59
2022/03/18 02:11:50;;;;;;;;;;;;;;;6.15;100.00;101136.81;5107594;27;19939;-60
2022/03/18 02:14:28;;;;;;;;;;;;;;;6.12;100.00;101141.88;5109678;27;19919;-60
2022/03/18 02:16:53;;;;;;;;;;;;;;;6.34;100.00;101143.19;5111892;27;19924;-60
2022/03/18 02:19:19;;;;;;;;;;;;;;;6.52;100.00;101145.22;5111243;27;19924;-60
2022/03/18 02:21:44;;;;;;;;;;;;;;;6.73;100.00;101147.34;5111627;27;19926;-60
2022/03/18 02:24:09;;;;;;;;;;;;;;;6.67;100.00;101153.19;5111017;27;20008;-61
2022/03/18 02:26:35;;;;;;;;;;;;;;;6.72;100.00;101144.75;5093776;27;19924;-60
2022/03/18 02:29:00;;;;;;;;;;;;;;;6.72;100.00;101150.72;5110651;27;20793;-59
2022/03/18 02:31:30;;;;;;;;;;;;;;;6.56;100.00;101154.69;5090369;27;20261;-60
2022/03/18 02:33:55;;;;;;;;;;;;;;;6.51;100.00;101161.41;5110229;28;19930;-60
2022/03/18 02:36:20;;;;;;;;;;;;;;;6.03;100.00;101164.72;5107442;28;19916;-60
2022/03/18 02:38:46;;;;;;;;;;;;;;;6.02;100.00;101160.41;5111204;28;19916;-59
2022/03/18 02:41:11;;;;;;;;;;;;;;;5.94;100.00;101170.50;5110574;28;20627;-59
2022/03/18 02:43:37;;;;;;;;;;;;;;;6.23;100.00;101171.13;5112472;28;19929;-60
2022/03/18 02:46:02;;;;;;;;;;;;;;;6.15;100.00;101170.06;5109932;28;19923;-61
2022/03/18 02:48:28;;;;;;;;;;;;;;;6.24;100.00;101169.41;5111815;28;20178;-60
2022/03/18 02:50:53;;;;;;;;;;;;;;;6.22;100.00;101171.94;5110950;28;19919;-61
2022/03/18 02:53:18;;;;;;;;;;;;;;;7.13;100.00;101164.25;5110128;28;19916;-61
2022/03/18 02:55:44;;;;;;;;;;;;;;;7.33;100.00;101171.41;5110827;28;19916;-60
2022/03/18 02:58:09;;;;;;;;;;;;;;;7.34;100.00;101170.56;5113290;28;19919;-60
2022/03/18 03:00:34;;;;;;;;;;;;;;;7.35;100.00;101174.84;5111476;28;19938;-60
2022/03/18 03:02:59;;;;;;;;;;;;;;;7.31;100.00;101178.22;5109416;28;19912;-61
2022/03/18 03:08:09;;;;;;;;;;;;;;;7.70;100.00;101183.09;5110738;28;19923;-61
2022/03/18 03:10:36;;;;;;;;;;;;;;;7.58;100.00;101185.47;5111741;28;20654;-62
2022/03/18 03:13:01;;;;;;;;;;;;;;;7.47;100.00;101199.81;5109162;28;20318;-60
2022/03/18 03:15:27;;;;;;;;;;;;;;;7.61;100.00;101202.59;5110495;28;19926;-61
2022/03/18 03:17:53;;;;;;;;;;;;;;;7.83;100.00;101209.78;5110692;28;19918;-61
2022/03/18 03:20:18;;;;;;;;;;;;;;;7.98;100.00;101206.56;5110475;28;20010;-60
2022/03/18 03:22:43;;;;;;;;;;;;;;;7.94;100.00;101210.81;5115650;28;20352;-60
2022/03/18 03:25:08;;;;;;;;;;;;;;;7.89;100.00;101211.56;5113961;27;19920;-61
2022/03/18 03:27:34;;;;;;;;;;;;;;;7.67;100.00;101213.81;5114208;27;19920;-59
2022/03/18 03:30:08;;;;;;;;;;;;;;;7.21;100.00;101225.88;5114075;27;20301;-61
2022/03/18 03:32:34;;;;;;;;;;;;;;;7.32;100.00;101233.75;5112980;27;19915;-60
2022/03/18 03:34:59;;;;;;;;;;;;;;;6.52;100.00;101242.47;5114524;27;19916;-61
2022/03/18 03:37:25;;;;;;;;;;;;;;;6.14;100.00;101246.81;5116844;27;19931;-60
2022/03/18 03:39:50;;;;;;;;;;;;;;;6.83;100.00;101250.78;5115032;27;19946;-60
2022/03/18 03:42:16;;;;;;;;;;;;;;;6.91;100.00;101257.81;5116742;27;20361;-60
2022/03/18 03:44:41;;;;;;;;;;;;;;;7.41;100.00;101259.56;5115578;27;19982;-61
2022/03/18 03:47:07;;;;;;;;;;;;;;;7.31;100.00;101252.53;5115735;27;20423;-60
2022/03/18 03:49:32;;;;;;;;;;;;;;;7.08;100.00;101252.97;5112466;27;19919;-60
2022/03/18 03:51:57;;;;;;;;;;;;;;;7.43;100.00;101260.44;5114099;27;19915;-60
2022/03/18 03:54:23;;;;;;;;;;;;;;;7.57;100.00;101257.25;5115409;27;20378;-59
2022/03/18 03:56:49;;;;;;;;;;;;;;;7.27;100.00;101258.44;5113367;27;19955;-60
2022/03/18 03:59:14;;;;;;;;;;;;;;;6.92;100.00;101263.78;5115777;27;19989;-59
2022/03/18 04:01:39;;;;;;;;;;;;;;;6.28;100.00;101264.19;5103321;27;20416;-61
2022/03/18 04:04:05;;;;;;;;;;;;;;;6.13;100.00;101261.28;5113412;27;19962;-61
2022/03/18 04:06:30;;;;;;;;;;;;;;;5.69;100.00;101268.75;5114232;27;19911;-61
2022/03/18 04:08:55;;;;;;;;;;;;;;;5.48;100.00;101271.63;5109733;27;19933;-61
2022/03/18 04:11:21;;;;;;;;;;;;;;;5.41;100.00;101285.94;5106845;27;19969;-60
2022/03/18 04:13:46;;;;;;;;;;;;;;;5.51;100.00;101278.50;5111319;27;20022;-59
2022/03/18 04:16:11;;;;;;;;;;;;;;;4.87;100.00;101273.44;5109896;27;19920;-59
2022/03/18 04:18:37;;;;;;;;;;;;;;;4.80;100.00;101280.03;5109357;27;19919;-61
2022/03/18 04:21:02;;;;;;;;;;;;;;;5.22;100.00;101276.94;5111982;27;20373;-60
2022/03/18 04:23:27;;;;;;;;;;;;;;;5.25;100.00;101281.28;5090856;27;19947;-61
2022/03/18 04:25:52;;;;;;;;;;;;;;;5.58;100.00;101277.84;5093596;27;20272;-60
2022/03/18 04:28:18;;;;;;;;;;;;;;;5.15;100.00;101279.28;5111851;27;20253;-60
2022/03/18 04:30:43;;;;;;;;;;;;;;;4.87;100.00;101278.53;5113730;27;19923;-59
2022/03/18 04:33:09;;;;;;;;;;;;;;;5.10;100.00;101275.75;5115314;27;19923;-60
2022/03/18 04:35:34;;;;;;;;;;;;;;;5.23;100.00;101288.88;5113922;27;19977;-59
2022/03/18 04:37:59;;;;;;;;;;;;;;;4.81;100.00;101289.44;5114075;27;20323;-58
2022/03/18 04:40:25;;;;;;;;;;;;;;;4.76;100.00;101288.44;5115344;27;19938;-58
2022/03/18 04:42:50;;;;;;;;;;;;;;;4.65;100.00;101284.72;5112914;27;19919;-60
2022/03/18 04:45:16;;;;;;;;;;;;;;;4.63;100.00;101280.38;5114012;27;19920;-59
2022/03/18 04:47:41;;;;;;;;;;;;;;;4.72;100.00;101293.41;5115755;27;19924;-60
2022/03/18 04:50:07;;;;;;;;;;;;;;;4.77;100.00;101291.88;5115615;27;19911;-60
2022/03/18 04:52:32;;;;;;;;;;;;;;;4.48;100.00;101294.44;5095757;27;19919;-57
2022/03/18 04:54:57;;;;;;;;;;;;;;;4.65;100.00;101294.06;5115264;27;19919;-59
2022/03/18 04:57:23;;;;;;;;;;;;;;;4.66;100.00;101298.34;5114070;27;19922;-59
2022/03/18 04:59:49;;;;;;;;;;;;;;;4.49;100.00;101311.47;5114682;27;19919;-60
2022/03/18 05:02:14;;;;;;;;;;;;;;;5.09;100.00;101309.78;5113403;27;20006;-60
2022/03/18 05:04:41;;;;;;;;;;;;;;;5.54;100.00;101315.25;5113986;27;19959;-59
2022/03/18 05:07:07;;;;;;;;;;;;;;;4.88;100.00;101310.91;5113011;27;19922;-59
2022/03/18 05:09:32;;;;;;;;;;;;;;;4.63;100.00;101313.56;5115783;27;19916;-60
2022/03/18 05:11:58;;;;;;;;;;;;;;;4.77;100.00;101313.16;5095208;28;20010;-59
2022/03/18 05:14:23;;;;;;;;;;;;;;;5.21;100.00;101315.22;5114492;27;19912;-60
2022/03/18 05:23:14;;;;;;;;;;;;;;;5.38;100.00;101323.31;5111486;27;20440;-60
2022/03/18 05:25:40;;;;;;;;;;;;;;;5.24;100.00;101321.28;5115353;27;20322;-59
2022/03/18 05:28:06;;;;;;;;;;;;;;;4.68;100.00;101317.13;5114372;27;20300;-60
2022/03/18 05:30:32;;;;;;;;;;;;;;;4.80;100.00;101327.69;5112031;27;19919;-59
2022/03/18 05:32:57;;;;;;;;;;;;;;;5.26;100.00;101333.22;5113224;27;19919;-59
2022/03/18 05:35:22;;;;;;;;;;;;;;;5.15;100.00;101336.34;5113114;27;19919;-60
2022/03/18 05:37:48;;;;;;;;;;;;;;;5.39;100.00;101327.63;5114419;27;19922;-59
2022/03/18 05:40:17;;;;;;;;;;;;;;;5.11;100.00;101334.53;5115137;27;19923;-59
2022/03/18 05:42:43;;;;;;;;;;;;;;;5.25;100.00;101345.13;5092602;27;19977;-58
2022/03/18 05:45:08;;;;;;;;;;;;;;;5.86;100.00;101354.41;5114962;27;19927;-59
2022/03/18 05:47:34;;;;;;;;;;;;;;;6.02;100.00;101347.13;5113905;27;19957;-59
2022/03/18 05:53:02;;;;;;;;;;;;;;;6.12;100.00;101369.56;5111469;27;20800;-59
2022/03/18 05:56:52;;;;;;;;;;;;;;;6.28;100.00;101373.34;5112290;27;19919;-59
2022/03/18 05:58:12;;;;;;;;;;;;;;;6.68;100.00;101376.81;5113722;27;19919;-59
2022/03/18 06:00:38;;;;;;;;;;;;;;;5.60;100.00;101383.53;5114824;27;20270;-59
2022/03/18 06:03:03;;;;;;;;;;;;;;;5.81;100.00;101384.09;5095439;27;19920;-59
2022/03/18 06:05:28;;;;;;;;;;;;;;;5.85;100.00;101393.56;5113029;27;20372;-59
2022/03/18 06:11:48;;;;;;;;;;;;;;;6.52;100.00;101406.31;5111149;27;19923;-59
2022/03/18 06:13:22;;;;;;;;;;;;;;;6.55;100.00;101403.84;5111760;27;20069;-59
2022/03/18 06:15:48;;;;;;;;;;;;;;;6.74;100.00;101409.38;5112591;27;20409;-59
2022/03/18 06:18:13;;;;;;;;;;;;;;;5.34;100.00;101401.59;5115227;27;19916;-59
2022/03/18 06:20:38;;;;;;;;;;;;;;;5.43;100.00;101406.97;5113102;27;20057;-60
2022/03/18 06:23:04;;;;;;;;;;;;;;;5.32;100.00;101410.91;5112045;27;19911;-60
2022/03/18 06:25:29;;;;;;;;;;;;;;;5.61;100.00;101414.28;5112348;27;20037;-59
2022/03/18 06:27:54;;;;;;;;;;;;;;;5.35;100.00;101418.66;5114130;27;20389;-60
2022/03/18 06:30:20;;;;;;;;;;;;;;;5.29;100.00;101421.06;5107777;27;19923;-60
2022/03/18 06:42:02;;;;;;;;;;;;;;;6.10;100.00;101445.41;5108578;28;19962;-60
2022/03/18 06:44:27;;;;;;;;;;;;;;;5.60;100.00;101434.66;5110083;28;20374;-59
2022/03/18 06:46:52;;;;;;;;;;;;;;;5.79;100.00;101434.34;5095333;28;19912;-58
2022/03/18 06:49:17;;;;;;;;;;;;;;;6.22;100.00;101440.59;5110638;28;19911;-60
2022/03/18 06:51:49;;;;;;;;;;;;;;;5.79;100.00;101442.03;5112502;28;19962;-60
2022/03/18 06:54:14;;;;;;;;;;;;;;;6.06;100.00;101449.56;5111121;28;20320;-60
2022/03/18 06:56:40;;;;;;;;;;;;;;;6.37;100.00;101452.03;5113885;28;19915;-60
2022/03/18 06:59:05;;;;;;;;;;;;;;;6.39;100.00;101452.94;5112627;27;19924;-60
2022/03/18 07:01:31;;;;;;;;;;;;;;;6.80;100.00;101461.59;5114895;27;19915;-59
2022/03/18 07:03:56;;;;;;;;;;;;;;;7.96;100.00;101460.59;5117547;27;19954;-60
2022/03/18 07:06:21;;;;;;;;;;;;;;;8.03;100.00;101464.13;5116217;27;19915;-60
2022/03/18 07:08:47;;;;;;;;;;;;;;;8.72;100.00;101462.72;5116905;27;20320;-59
2022/03/18 07:23:29;;;;;;;;;;;;;;;9.49;100.00;101458.63;5114259;27;19971;-60
2022/03/18 07:25:54;;;;;;;;;;;;;;;9.82;100.00;101455.56;5115750;27;20018;-60
2022/03/18 07:28:19;;;;;;;;;;;;;;;10.26;100.00;101449.09;5117213;27;19979;-59
2022/03/18 07:30:45;;;;;;;;;;;;;;;10.61;100.00;101446.84;5115091;27;19973;-60
2022/03/18 07:33:10;;;;;;;;;;;;;;;10.31;100.00;101451.75;5115012;27;19919;-60
2022/03/18 07:35:36;;;;;;;;;;;;;;;9.54;100.00;101461.25;5093657;27;19922;-60
2022/03/18 07:38:02;;;;;;;;;;;;;;;10.21;100.00;101461.94;5114080;27;19965;-60
2022/03/18 07:40:28;;;;;;;;;;;;;;;10.53;100.00;101455.38;5114728;27;19919;-60
2022/03/18 07:42:54;;;;;;;;;;;;;;;9.90;100.00;101462.47;5113956;27;19962;-60
2022/03/18 07:45:29;;;;;;;;;;;;;;;9.66;100.00;101460.53;5113804;27;19912;-60
2022/03/18 07:47:56;;;;;;;;;;;;;;;10.15;100.00;101456.75;5114838;27;20933;-60
2022/03/18 07:50:23;;;;;;;;;;;;;;;10.82;100.00;101453.84;5113733;27;19981;-60
2022/03/18 07:52:58;;;;;;;;;;;;;;;10.93;100.00;101453.06;5118980;27;19962;-60
2022/03/18 07:58:30;;;;;;;;;;;;;;;9.59;100.00;101470.75;5095234;27;19997;-60
2022/03/18 08:32:31;;;;;;;;;;;;;;;10.32;100.00;101467.22;5111188;27;20313;-59
2022/03/18 08:41:16;;;;;;;;;;;;;;;10.51;100.00;101470.81;5109533;27;19926;-60
2022/03/18 08:52:57;;;;;;;;;;;;;;;11.41;100.00;101469.66;5113379;27;20395;-59
2022/03/18 08:55:23;;;;;;;;;;;;;;;11.08;100.00;101473.78;5090834;28;19912;-58
2022/03/18 09:01:17;;;;;;;;;;;;;;;10.08;100.00;101479.81;5107826;27;20016;-60
2022/03/18 09:22:19;;;;;;;;;;;;;;;10.92;100.00;101513.22;5110239;27;20430;-60
2022/03/18 09:25:07;;;;;;;;;;;;;;;10.68;100.00;101519.91;5110820;27;19915;-59
2022/03/18 09:27:32;;;;;;;;;;;;;;;11.60;100.00;101510.13;5113167;27;19915;-60
2022/03/18 09:29:59;;;;;;;;;;;;;;;11.94;100.00;101518.03;5113023;27;19916;-60
2022/03/18 09:32:25;;;;;;;;;;;;;;;11.51;100.00;101518.69;5095110;27;20038;-60
2022/03/18 09:34:51;;;;;;;;;;;;;;;11.68;100.00;101523.94;5095255;27;20404;-60
2022/03/18 09:37:16;;;;;;;;;;;;;;;12.03;100.00;101525.81;5112992;27;20041;-59
2022/03/18 09:39:41;;;;;;;;;;;;;;;12.16;100.00;101536.16;5113478;27;20284;-58
2022/03/18 09:42:07;;;;;;;;;;;;;;;11.13;100.00;101553.75;5112962;27;20420;-58
2022/03/18 09:47:41;;;;;;;;;;;;;;;12.40;100.00;101556.03;5109396;27;20002;-57
2022/03/18 09:50:07;;;;;;;;;;;;;;;11.34;100.00;101561.63;5113442;27;19916;-59
2022/03/18 09:52:32;;;;;;;;;;;;;;;13.06;100.00;101561.22;5111948;27;20242;-60
2022/03/18 09:54:58;;;;;;;;;;;;;;;13.17;100.00;101554.28;5089629;28;19923;-59
2022/03/18 09:57:23;;;;;;;;;;;;;;;12.43;100.00;101564.66;5108514;27;19920;-60
2022/03/18 09:59:49;;;;;;;;;;;;;;;12.24;100.00;101563.75;5112553;27;19924;-59
2022/03/18 10:02:30;;;;;;;;;;;;;;;11.84;100.00;101573.06;5110835;27;20209;-59
2022/03/18 10:11:16;;;;;;;;;;;;;;;13.68;100.00;101564.53;5109620;27;19919;-60
2022/03/18 10:19:59;;;;;;;;;;;;;;;12.76;100.00;101576.72;5109892;27;20015;-60
2022/03/18 10:22:28;;;;;;;;;;;;;;;12.03;100.00;101572.31;5110879;27;19994;-59
2022/03/18 10:31:19;;;;;;;;;;;;;;;13.28;100.00;101573.28;5110782;27;19918;-59
2022/03/18 10:37:04;;;;;;;;;;;;;;;13.69;100.00;101564.53;5108748;27;20006;-60
2022/03/18 10:39:20;;;;;;;;;;;;;;;13.33;100.00;101574.13;5112013;28;19966;-58
2022/03/18 10:41:47;;;;;;;;;;;;;;;12.94;100.00;101565.53;5093202;28;19919;-58
2022/03/18 10:44:15;;;;;;;;;;;;;;;11.93;100.00;101581.75;5112945;28;20395;-60
2022/03/18 10:46:56;;;;;;;;;;;;;;;13.57;100.00;101569.75;5091796;28;19947;-60
2022/03/18 10:49:23;;;;;;;;;;;;;;;14.17;100.00;101565.19;5107298;28;19919;-60
2022/03/18 10:51:48;;;;;;;;;;;;;;;13.48;100.00;101583.59;5112875;28;19916;-60
2022/03/18 10:54:23;;;;;;;;;;;;;;;13.09;100.00;101581.91;5109572;28;19925;-60
2022/03/18 11:11:55;;;;;;;;;;;;;;;13.83;100.00;101577.44;5021598;28;19990;-59
2022/03/18 11:14:21;;;;;;;;;;;;;;;12.90;100.00;101578.47;5007799;28;19928;-60
2022/03/18 11:16:47;;;;;;;;;;;;;;;14.10;100.00;101573.88;5024580;28;19949;-60
2022/03/18 11:19:14;;;;;;;;;;;;;;;14.87;100.00;101568.19;5025510;28;19964;-59
2022/03/18 11:21:39;;;;;;;;;;;;;;;14.22;100.00;101568.59;5025292;28;19996;-60
2022/03/18 11:24:06;;;;;;;;;;;;;;;14.19;100.00;101572.97;5024394;28;20414;-59
2022/03/18 11:32:38;;;;;;;;;;;;;;;13.89;100.00;101573.94;5024629;28;19927;-60
2022/03/18 11:35:06;;;;;;;;;;;;;;;14.40;100.00;101571.97;5023417;28;19968;-60
2022/03/18 11:37:32;;;;;;;;;;;;;;;14.12;100.00;101577.31;5090033;28;20389;-60
2022/03/18 11:40:27;;;;;;;;;;;;;;;14.76;97.49;101577.78;5090815;28;19931;-60
2022/03/18 11:42:54;;;;;;;;;;;;;;;14.00;98.39;101583.41;5102895;28;19916;-59
2022/03/18 11:45:42;;;;;;;;;;;;;;;14.80;100.00;101582.06;5091240;27;20400;-59
2022/03/18 11:48:27;;;;;;;;;;;;;;;14.98;94.42;101578.44;5113490;27;19912;-59
2022/03/18 11:50:57;;;;;;;;;;;;;;;15.31;93.53;101569.50;5113425;27;19923;-59
2022/03/18 12:02:37;;;;;;;;;;;;;;;14.21;95.69;101569.47;5109684;27;19998;-60
2022/03/18 12:05:04;;;;;;;;;;;;;;;13.36;92.35;101568.97;5113742;27;20002;-59
2022/03/18 12:07:30;;;;;;;;;;;;;;;14.37;95.31;101566.81;5115302;27;20519;-60
2022/03/18 12:10:06;;;;;;;;;;;;;;;14.50;91.46;101564.97;5094954;27;19951;-58
2022/03/18 12:12:31;;;;;;;;;;;;;;;14.43;92.58;101554.63;5113979;27;20370;-59
2022/03/18 12:14:58;;;;;;;;;;;;;;;15.43;88.02;101543.38;5114863;27;19922;-60
2022/03/18 12:17:24;;;;;;;;;;;;;;;15.14;86.83;101548.03;5135176;22;20425;-85
2022/03/18 12:19:51;;;;;;;;;;;;;;;15.74;94.92;101552.59;5079835;28;19924;-85
2022/03/18 12:22:17;;;;;;;;;;;;;;;14.41;93.00;101553.81;5078499;28;19966;-90
2022/03/18 12:24:42;;;;;;;;;;;;;;;15.63;89.08;101534.50;5062273;28;20373;-88
2022/03/18 12:27:07;;;;;;;;;;;;;;;16.54;87.44;101539.31;5064262;28;19916;-87
2022/03/18 12:29:33;;;;;;;;;;;;;;;15.53;85.57;101538.06;5064259;28;19916;-90
2022/03/18 12:32:05;;;;;;;;;;;;;;;15.32;79.84;101534.00;5082267;28;20046;-86
2022/03/18 12:34:31;;;;;;;;;;;;;;;16.20;84.95;101541.56;5067162;28;20366;-85
2022/03/18 12:36:56;;;;;;;;;;;;;;;15.13;82.62;101543.72;5071625;28;20029;-85
2022/03/18 12:39:24;;;;;;;;;;;;;;;16.14;83.53;101536.47;5063685;28;19970;-85
2022/03/18 12:41:50;;;;;;;;;;;;;;;15.28;80.85;101528.00;5083158;28;19912;-86
2022/03/18 12:44:29;;;;;;;;;;;;;;;14.55;83.84;101527.81;5065261;28;20318;-87
2022/03/18 12:46:54;;;;;;;;;;;;;;;15.13;85.48;101528.16;5064059;28;19922;-86
2022/03/18 12:49:19;;;;;;;;;;;;;;;14.70;82.96;101523.34;5068791;28;19916;-86
2022/03/18 12:51:49;;;;;;;;;;;;;;;15.37;85.29;101524.41;5064481;28;20020;-86
2022/03/18 12:54:15;;;;;;;;;;;;;;;14.77;84.85;101530.22;5068205;28;20440;-85
2022/03/18 12:56:40;;;;;;;;;;;;;;;14.95;88.35;101524.84;5059882;28;20038;-86
2022/03/18 12:59:05;;;;;;;;;;;;;;;15.25;80.57;101518.47;5062991;28;20405;-86
2022/03/18 13:01:30;;;;;;;;;;;;;;;14.70;78.83;101525.94;5065211;28;19964;-86
2022/03/18 13:03:56;;;;;;;;;;;;;;;14.77;80.98;101540.59;5068105;28;20259;-86
2022/03/18 13:06:22;;;;;;;;;;;;;;;16.12;75.34;101526.06;5082279;28;19931;-87
2022/03/18 13:08:50;;;;;;;;;;;;;;;15.53;74.13;101527.69;5076294;28;19916;-86
2022/03/18 13:11:16;;;;;;;;;;;;;;;15.46;73.48;101517.41;5066237;28;20011;-87
2022/03/18 13:13:46;;;;;;;;;;;;;;;15.37;79.94;101517.50;5063162;28;19982;-86
2022/03/18 13:16:13;;;;;;;;;;;;;;;15.38;78.50;101514.00;5063474;28;20401;-85
2022/03/18 13:18:40;;;;;;;;;;;;;;;16.02;77.22;101506.31;5095102;27;19942;-86
2022/03/18 13:21:06;;;;;;;;;;;;;;;16.10;80.20;101504.44;5102790;27;19930;-88
2022/03/18 13:23:33;;;;;;;;;;;;;;;15.79;77.72;101502.28;5094420;27;20014;-86
2022/03/18 13:25:58;;;;;;;;;;;;;;;16.90;83.13;101500.56;5084527;27;20386;-87
2022/03/18 13:28:26;;;;;;;;;;;;;;;15.65;74.16;101502.44;5085788;27;19922;-85
2022/03/18 13:33:42;;;;;;;;;;;;;;;16.29;65.88;101500.69;5108045;27;19918;-85
2022/03/18 13:36:28;;;;;;;;;;;;;;;15.44;64.92;101511.34;5098580;27;20833;-86
2022/03/18 13:38:54;;;;;;;;;;;;;;;15.59;59.98;101504.25;5098447;28;19916;-84
2022/03/18 13:41:19;;;;;;;;;;;;;;;15.19;64.37;101513.38;5091030;27;20111;-85
2022/03/18 13:43:46;;;;;;;;;;;;;;;17.01;67.02;101505.56;5086915;27;19916;-84
2022/03/18 13:46:18;;;;;;;;;;;;;;;16.44;61.03;101509.97;5087754;27;19920;-83
2022/03/18 13:48:45;;;;;;;;;;;;;;;16.81;59.29;101505.94;5103050;27;20293;-84
2022/03/18 13:51:11;;;;;;;;;;;;;;;15.25;61.72;101517.63;5083902;27;19930;-85
2022/03/18 13:53:37;;;;;;;;;;;;;;;16.75;65.46;101509.47;5085057;27;19919;-84
2022/03/18 13:56:15;;;;;;;;;;;;;;;15.87;59.25;101508.25;5086382;27;20282;-85
2022/03/18 13:58:41;;;;;;;;;;;;;;;16.77;59.32;101504.25;5082235;28;19916;-85
2022/03/18 14:01:08;;;;;;;;;;;;;;;17.15;62.97;101503.56;5082723;27;19923;-86
2022/03/18 14:03:33;;;;;;;;;;;;;;;17.62;60.08;101503.50;5085851;27;19915;-84
2022/03/18 14:06:00;;;;;;;;;;;;;;;15.67;67.02;101520.59;5086029;27;19915;-86
2022/03/18 14:08:27;;;;;;;;;;;;;;;15.88;69.51;101514.28;5084726;27;20412;-84
2022/03/18 14:10:52;;;;;;;;;;;;;;;15.86;72.89;101510.84;5084470;27;20002;-84
2022/03/18 14:13:25;;;;;;;;;;;;;;;15.89;73.85;101511.66;5084598;27;19951;-84
2022/03/18 14:15:50;;;;;;;;;;;;;;;15.34;72.91;101514.91;5082497;27;19919;-85
2022/03/18 14:18:17;;;;;;;;;;;;;;;15.15;75.37;101501.28;5080573;28;19934;-85
2022/03/18 14:20:52;;;;;;;;;;;;;;;15.12;76.25;101511.72;5078844;27;19923;-86
2022/03/18 14:23:20;;;;;;;;;;;;;;;17.34;78.55;101496.25;5114692;27;20407;-86
2022/03/18 14:25:45;;;;;;;;;;;;;;;15.42;74.74;101504.47;5099956;28;20334;-85
2022/03/18 14:28:18;;;;;;;;;;;;;;;14.61;80.33;101509.59;5081234;28;20007;-85
2022/03/18 14:30:43;;;;;;;;;;;;;;;16.69;76.48;101492.25;5114839;27;19919;-86
2022/03/18 14:33:09;;;;;;;;;;;;;;;15.30;77.33;101500.25;5088817;28;19942;-86
2022/03/18 14:35:34;;;;;;;;;;;;;;;15.92;76.18;101495.19;5101960;27;19919;-88
2022/03/18 14:37:59;;;;;;;;;;;;;;;16.03;76.34;101498.50;5085259;28;19976;-85
2022/03/18 14:40:24;;;;;;;;;;;;;;;15.66;74.17;101498.09;5084957;28;20583;-84
2022/03/18 14:42:50;;;;;;;;;;;;;;;15.79;80.10;101499.69;5100169;28;19931;-86
2022/03/18 14:45:16;;;;;;;;;;;;;;;14.87;75.70;101495.53;5101134;28;19947;-84
2022/03/18 14:47:41;;;;;;;;;;;;;;;15.61;79.54;101499.91;5090941;28;20346;-83
2022/03/18 14:50:07;;;;;;;;;;;;;;;15.81;82.77;101497.94;5081629;28;20362;-83
2022/03/18 14:52:33;;;;;;;;;;;;;;;15.63;75.91;101499.00;5081531;28;19930;-84
2022/03/18 14:57:42;;;;;;;;;;;;;;;14.71;85.11;101512.09;5102049;28;20645;-84
2022/03/18 15:00:08;;;;;;;;;;;;;;;14.53;78.55;101506.19;5081044;28;20472;-83
2022/03/18 15:02:33;;;;;;;;;;;;;;;15.14;75.88;101493.50;5100585;28;19927;-85
2022/03/18 15:04:59;;;;;;;;;;;;;;;15.17;85.36;101498.69;5100979;28;20396;-85
2022/03/18 15:07:25;;;;;;;;;;;;;;;15.58;85.59;101499.94;5098149;28;19961;-83
2022/03/18 15:09:50;;;;;;;;;;;;;;;14.66;86.10;101500.91;5100037;28;19954;-86
2022/03/18 15:12:16;;;;;;;;;;;;;;;14.25;85.61;101499.47;5084786;28;19916;-88
2022/03/18 15:14:42;;;;;;;;;;;;;;;14.32;91.19;101516.69;5100963;28;19911;-87
2022/03/18 15:17:07;;;;;;;;;;;;;;;15.31;87.21;101501.97;5100288;28;19925;-86
2022/03/18 15:19:32;;;;;;;;;;;;;;;14.71;90.71;101505.19;5099652;28;19955;-86
2022/03/18 15:22:00;;;;;;;;;;;;;;;14.72;90.77;101501.72;5103582;27;20022;-85
2022/03/18 15:24:25;;;;;;;;;;;;;;;14.87;88.59;101502.44;5107488;27;19912;-85
2022/03/18 15:26:50;;;;;;;;;;;;;;;15.33;90.12;101495.03;5124378;27;19912;-88
2022/03/18 15:29:16;;;;;;;;;;;;;;;14.46;90.31;101496.75;5106528;27;19919;-85